sensor_id;sensor_type;location;lat;lon;timestamp;pressure;altitude;pressure_sealevel;temperature;humidity
54270;BME280;40181;51.560;13.000;2022-09-09T00:00:13;100237.28;;;16.21;83.02
54270;BME280;40181;51.560;13.000;2022-09-09T00:02:45;100234.84;;;16.06;82.36
54270;BME280;40181;51.560;13.000;2022-09-09T00:05:23;100241.81;;;16.14;82.22
54270;BME280;40181;51.560;13.000;2022-09-09T00:07:58;100234.34;;;15.77;82.58
54270;BME280;40181;51.560;13.000;2022-09-09T00:10:29;100235.06;;;15.88;83.18
54270;BME280;40181;51.560;13.000;2022-09-09T00:13:02;100233.22;;;15.97;82.24
54270;BME280;40181;51.560;13.000;2022-09-09T00:15:43;100236.06;;;15.80;82.58
54270;BME280;40181;51.560;13.000;2022-09-09T00:18:20;100238.63;;;15.86;82.51
54270;BME280;40181;51.560;13.000;2022-09-09T00:20:57;100239.44;;;15.94;82.66
54270;BME280;40181;51.560;13.000;2022-09-09T00:23:30;100241.19;;;15.95;81.48
54270;BME280;40181;51.560;13.000;2022-09-09T00:26:03;100238.69;;;15.81;81.96
54270;BME280;40181;51.560;13.000;2022-09-09T00:28:38;100235.97;;;15.86;81.03
54270;BME280;40181;51.560;13.000;2022-09-09T00:31:11;100228.13;;;15.80;81.43
54270;BME280;40181;51.560;13.000;2022-09-09T00:33:41;100229.06;;;15.75;81.62
54270;BME280;40181;51.560;13.000;2022-09-09T00:36:15;100234.13;;;15.96;81.30
54270;BME280;40181;51.560;13.000;2022-09-09T00:38:48;100243.72;;;16.04;80.69
54270;BME280;40181;51.560;13.000;2022-09-09T00:41:20;100243.28;;;15.70;81.01
54270;BME280;40181;51.560;13.000;2022-09-09T00:43:55;100235.25;;;15.74;80.94
54270;BME280;40181;51.560;13.000;2022-09-09T00:46:40;100243.41;;;15.57;81.19
54270;BME280;40181;51.560;13.000;2022-09-09T00:49:21;100238.88;;;15.66;81.78
54270;BME280;40181;51.560;13.000;2022-09-09T00:52:02;100228.22;;;15.73;81.19
54270;BME280;40181;51.560;13.000;2022-09-09T00:54:40;100238.75;;;15.76;80.79
54270;BME280;40181;51.560;13.000;2022-09-09T00:57:18;100232.75;;;15.63;81.05
54270;BME280;40181;51.560;13.000;2022-09-09T00:59:55;100234.53;;;15.61;81.41
54270;BME280;40181;51.560;13.000;2022-09-09T01:02:31;100233.47;;;15.76;81.44
54270;BME280;40181;51.560;13.000;2022-09-09T01:05:13;100232.41;;;15.93;81.32
54270;BME280;40181;51.560;13.000;2022-09-09T01:07:50;100233.66;;;15.61;80.94
54270;BME280;40181;51.560;13.000;2022-09-09T01:10:21;100229.25;;;15.63;80.68
54270;BME280;40181;51.560;13.000;2022-09-09T01:12:58;100238.16;;;15.54;81.54
54270;BME280;40181;51.560;13.000;2022-09-09T01:15:30;100240.97;;;15.39;81.98
54270;BME280;40181;51.560;13.000;2022-09-09T01:18:02;100236.59;;;15.38;82.27
54270;BME280;40181;51.560;13.000;2022-09-09T01:20:37;100244.66;;;15.27;81.99
54270;BME280;40181;51.560;13.000;2022-09-09T01:23:20;100234.88;;;15.32;82.04
54270;BME280;40181;51.560;13.000;2022-09-09T01:28:51;100251.50;;;15.46;82.15
54270;BME280;40181;51.560;13.000;2022-09-09T01:31:22;100237.53;;;15.33;81.96
54270;BME280;40181;51.560;13.000;2022-09-09T01:33:54;100232.97;;;15.45;81.77
54270;BME280;40181;51.560;13.000;2022-09-09T01:36:25;100236.69;;;15.30;82.17
54270;BME280;40181;51.560;13.000;2022-09-09T01:38:58;100236.47;;;15.47;82.41
54270;BME280;40181;51.560;13.000;2022-09-09T01:41:30;100233.13;;;15.31;82.09
54270;BME280;40181;51.560;13.000;2022-09-09T01:43:59;100243.94;;;15.12;83.12
54270;BME280;40181;51.560;13.000;2022-09-09T01:46:29;100240.28;;;15.23;82.36
54270;BME280;40181;51.560;13.000;2022-09-09T01:48:58;100247.25;;;15.31;82.04
54270;BME280;40181;51.560;13.000;2022-09-09T01:51:30;100243.63;;;15.39;81.67
54270;BME280;40181;51.560;13.000;2022-09-09T01:53:59;100241.06;;;15.31;81.77
54270;BME280;40181;51.560;13.000;2022-09-09T01:56:35;100251.75;;;15.21;81.99
54270;BME280;40181;51.560;13.000;2022-09-09T01:59:15;100247.28;;;15.30;82.30
54270;BME280;40181;51.560;13.000;2022-09-09T02:01:54;100245.38;;;15.41;81.75
54270;BME280;40181;51.560;13.000;2022-09-09T02:04:34;100235.84;;;15.25;81.98
54270;BME280;40181;51.560;13.000;2022-09-09T02:07:09;100225.19;;;15.32;81.86
54270;BME280;40181;51.560;13.000;2022-09-09T02:09:50;100235.63;;;15.45;81.66
54270;BME280;40181;51.560;13.000;2022-09-09T02:12:26;100238.09;;;15.57;81.56
54270;BME280;40181;51.560;13.000;2022-09-09T02:14:59;100235.53;;;15.53;80.90
54270;BME280;40181;51.560;13.000;2022-09-09T02:17:33;100233.81;;;15.48;81.38
54270;BME280;40181;51.560;13.000;2022-09-09T02:20:05;100232.03;;;15.51;81.09
54270;BME280;40181;51.560;13.000;2022-09-09T02:22:35;100235.50;;;15.54;80.95
54270;BME280;40181;51.560;13.000;2022-09-09T02:25:08;100229.19;;;15.68;81.31
54270;BME280;40181;51.560;13.000;2022-09-09T02:27:42;100226.66;;;15.58;81.73
54270;BME280;40181;51.560;13.000;2022-09-09T02:30:16;100227.38;;;15.70;80.98
54270;BME280;40181;51.560;13.000;2022-09-09T02:32:48;100237.38;;;15.46;81.66
54270;BME280;40181;51.560;13.000;2022-09-09T02:35:22;100236.59;;;15.38;81.27
54270;BME280;40181;51.560;13.000;2022-09-09T02:37:55;100225.09;;;15.39;81.32
54270;BME280;40181;51.560;13.000;2022-09-09T02:40:27;100237.53;;;15.30;81.58
54270;BME280;40181;51.560;13.000;2022-09-09T02:42:59;100235.88;;;15.23;82.53
54270;BME280;40181;51.560;13.000;2022-09-09T02:45:31;100239.72;;;14.92;83.46
54270;BME280;40181;51.560;13.000;2022-09-09T02:48:07;100237.78;;;15.10;82.92
54270;BME280;40181;51.560;13.000;2022-09-09T02:50:41;100248.41;;;15.04;83.01
54270;BME280;40181;51.560;13.000;2022-09-09T02:53:16;100243.13;;;15.02;83.33
54270;BME280;40181;51.560;13.000;2022-09-09T02:55:46;100256.41;;;14.98;83.23
54270;BME280;40181;51.560;13.000;2022-09-09T02:58:19;100254.75;;;14.90;83.70
54270;BME280;40181;51.560;13.000;2022-09-09T03:00:49;100253.66;;;15.07;82.65
54270;BME280;40181;51.560;13.000;2022-09-09T03:03:19;100251.00;;;15.08;82.59
54270;BME280;40181;51.560;13.000;2022-09-09T03:05:49;100262.44;;;15.14;82.35
54270;BME280;40181;51.560;13.000;2022-09-09T03:08:18;100249.91;;;15.28;82.74
54270;BME280;40181;51.560;13.000;2022-09-09T03:10:47;100254.31;;;15.31;82.16
54270;BME280;40181;51.560;13.000;2022-09-09T03:13:20;100255.22;;;15.28;82.33
54270;BME280;40181;51.560;13.000;2022-09-09T03:15:50;100265.84;;;15.27;82.11
54270;BME280;40181;51.560;13.000;2022-09-09T03:18:19;100249.06;;;15.28;81.64
54270;BME280;40181;51.560;13.000;2022-09-09T03:20:48;100250.78;;;15.32;82.24
54270;BME280;40181;51.560;13.000;2022-09-09T03:23:19;100246.22;;;15.45;82.06
54270;BME280;40181;51.560;13.000;2022-09-09T03:25:49;100257.63;;;15.50;81.63
54270;BME280;40181;51.560;13.000;2022-09-09T03:28:24;100250.78;;;15.32;81.10
54270;BME280;40181;51.560;13.000;2022-09-09T03:30:58;100248.00;;;15.43;81.79
54270;BME280;40181;51.560;13.000;2022-09-09T03:33:27;100247.84;;;15.55;81.67
54270;BME280;40181;51.560;13.000;2022-09-09T03:35:56;100241.66;;;15.58;80.92
54270;BME280;40181;51.560;13.000;2022-09-09T03:38:25;100239.06;;;15.55;81.48
54270;BME280;40181;51.560;13.000;2022-09-09T03:40:55;100240.69;;;15.62;81.17
54270;BME280;40181;51.560;13.000;2022-09-09T03:43:28;100247.84;;;15.55;80.05
54270;BME280;40181;51.560;13.000;2022-09-09T03:45:57;100250.50;;;15.55;81.54
54270;BME280;40181;51.560;13.000;2022-09-09T03:48:26;100254.00;;;15.57;81.22
54270;BME280;40181;51.560;13.000;2022-09-09T03:50:55;100246.00;;;15.62;80.98
54270;BME280;40181;51.560;13.000;2022-09-09T03:53:26;100242.19;;;15.10;81.52
54270;BME280;40181;51.560;13.000;2022-09-09T03:55:56;100245.34;;;15.44;80.59
54270;BME280;40181;51.560;13.000;2022-09-09T03:58:28;100255.34;;;15.17;81.84
54270;BME280;40181;51.560;13.000;2022-09-09T04:00:58;100251.16;;;14.94;82.46
54270;BME280;40181;51.560;13.000;2022-09-09T04:03:27;100255.59;;;14.91;82.63
54270;BME280;40181;51.560;13.000;2022-09-09T04:05:57;100251.34;;;14.71;83.35
54270;BME280;40181;51.560;13.000;2022-09-09T04:08:28;100236.13;;;14.97;82.86
54270;BME280;40181;51.560;13.000;2022-09-09T04:10:58;100238.91;;;14.84;82.91
54270;BME280;40181;51.560;13.000;2022-09-09T04:13:33;100233.50;;;14.98;82.86
54270;BME280;40181;51.560;13.000;2022-09-09T04:16:02;100237.03;;;14.94;82.71
54270;BME280;40181;51.560;13.000;2022-09-09T04:18:32;100241.47;;;14.93;82.58
54270;BME280;40181;51.560;13.000;2022-09-09T04:21:01;100245.00;;;14.92;82.46
54270;BME280;40181;51.560;13.000;2022-09-09T04:23:31;100243.19;;;14.98;82.33
54270;BME280;40181;51.560;13.000;2022-09-09T04:26:01;100241.41;;;15.00;82.47
54270;BME280;40181;51.560;13.000;2022-09-09T04:28:33;100249.41;;;14.93;82.41
54270;BME280;40181;51.560;13.000;2022-09-09T04:31:06;100241.56;;;14.83;82.52
54270;BME280;40181;51.560;13.000;2022-09-09T04:33:36;100238.72;;;15.04;82.62
54270;BME280;40181;51.560;13.000;2022-09-09T04:36:05;100247.41;;;15.17;81.50
54270;BME280;40181;51.560;13.000;2022-09-09T04:38:34;100256.56;;;14.79;81.87
54270;BME280;40181;51.560;13.000;2022-09-09T04:41:04;100247.81;;;14.71;82.99
54270;BME280;40181;51.560;13.000;2022-09-09T04:43:38;100256.63;;;14.71;83.04
54270;BME280;40181;51.560;13.000;2022-09-09T04:46:07;100255.59;;;14.92;82.38
54270;BME280;40181;51.560;13.000;2022-09-09T04:48:37;100256.41;;;14.98;82.75
54270;BME280;40181;51.560;13.000;2022-09-09T04:51:06;100250.22;;;15.00;82.58
54270;BME280;40181;51.560;13.000;2022-09-09T04:53:36;100251.16;;;14.93;81.91
54270;BME280;40181;51.560;13.000;2022-09-09T04:56:07;100262.81;;;14.69;83.08
54270;BME280;40181;51.560;13.000;2022-09-09T04:58:39;100259.25;;;14.74;83.19
54270;BME280;40181;51.560;13.000;2022-09-09T05:01:10;100264.59;;;14.73;83.37
54270;BME280;40181;51.560;13.000;2022-09-09T05:03:42;100267.34;;;14.51;83.78
54270;BME280;40181;51.560;13.000;2022-09-09T05:06:11;100265.66;;;14.39;84.39
54270;BME280;40181;51.560;13.000;2022-09-09T05:08:41;100267.31;;;14.57;83.85
54270;BME280;40181;51.560;13.000;2022-09-09T05:11:18;100269.84;;;14.71;83.66
54270;BME280;40181;51.560;13.000;2022-09-09T05:13:50;100275.13;;;14.70;83.15
54270;BME280;40181;51.560;13.000;2022-09-09T05:16:19;100276.88;;;14.71;83.23
54270;BME280;40181;51.560;13.000;2022-09-09T05:18:48;100274.16;;;14.86;83.14
54270;BME280;40181;51.560;13.000;2022-09-09T05:21:18;100267.97;;;14.89;82.33
54270;BME280;40181;51.560;13.000;2022-09-09T05:23:49;100280.41;;;14.70;82.65
54270;BME280;40181;51.560;13.000;2022-09-09T05:26:19;100268.88;;;14.85;82.99
54270;BME280;40181;51.560;13.000;2022-09-09T05:28:52;100268.78;;;14.96;81.80
54270;BME280;40181;51.560;13.000;2022-09-09T05:31:21;100270.69;;;14.72;82.42
54270;BME280;40181;51.560;13.000;2022-09-09T05:33:51;100276.03;;;14.67;82.56
54270;BME280;40181;51.560;13.000;2022-09-09T05:36:20;100274.88;;;15.02;81.55
54270;BME280;40181;51.560;13.000;2022-09-09T05:38:50;100286.44;;;14.95;82.36
54270;BME280;40181;51.560;13.000;2022-09-09T05:41:19;100281.88;;;15.11;81.89
54270;BME280;40181;51.560;13.000;2022-09-09T05:43:48;100274.78;;;15.15;81.51
54270;BME280;40181;51.560;13.000;2022-09-09T05:46:20;100287.91;;;15.21;81.73
54270;BME280;40181;51.560;13.000;2022-09-09T05:48:51;100289.59;;;15.31;81.99
54270;BME280;40181;51.560;13.000;2022-09-09T05:51:21;100285.16;;;15.32;80.91
54270;BME280;40181;51.560;13.000;2022-09-09T05:53:51;100293.25;;;15.18;80.47
54270;BME280;40181;51.560;13.000;2022-09-09T05:56:23;100288.88;;;15.15;80.57
54270;BME280;40181;51.560;13.000;2022-09-09T05:58:56;100295.72;;;15.38;80.10
54270;BME280;40181;51.560;13.000;2022-09-09T06:01:26;100291.31;;;15.34;79.62
54270;BME280;40181;51.560;13.000;2022-09-09T06:03:56;100290.50;;;15.27;79.69
54270;BME280;40181;51.560;13.000;2022-09-09T06:06:26;100295.59;;;15.47;79.85
54270;BME280;40181;51.560;13.000;2022-09-09T06:08:58;100297.44;;;15.41;79.84
54270;BME280;40181;51.560;13.000;2022-09-09T06:11:28;100303.44;;;15.57;79.73
54270;BME280;40181;51.560;13.000;2022-09-09T06:14:01;100300.84;;;15.51;79.03
54270;BME280;40181;51.560;13.000;2022-09-09T06:16:31;100283.78;;;15.75;79.36
54270;BME280;40181;51.560;13.000;2022-09-09T06:19:02;100299.72;;;15.72;79.30
54270;BME280;40181;51.560;13.000;2022-09-09T06:21:32;100296.06;;;15.82;79.17
54270;BME280;40181;51.560;13.000;2022-09-09T06:24:02;100288.94;;;15.87;78.51
54270;BME280;40181;51.560;13.000;2022-09-09T06:26:33;100295.91;;;15.98;79.90
54270;BME280;40181;51.560;13.000;2022-09-09T06:29:04;100287.13;;;15.94;78.93
54270;BME280;40181;51.560;13.000;2022-09-09T06:31:34;100285.25;;;16.02;79.61
54270;BME280;40181;51.560;13.000;2022-09-09T06:34:04;100283.44;;;16.06;79.10
54270;BME280;40181;51.560;13.000;2022-09-09T06:36:34;100280.78;;;16.06;79.93
54270;BME280;40181;51.560;13.000;2022-09-09T06:39:04;100283.44;;;16.06;79.06
54270;BME280;40181;51.560;13.000;2022-09-09T06:41:36;100291.38;;;16.08;78.95
54270;BME280;40181;51.560;13.000;2022-09-09T06:44:07;100282.41;;;16.18;78.66
54270;BME280;40181;51.560;13.000;2022-09-09T06:46:36;100291.28;;;16.14;78.83
54270;BME280;40181;51.560;13.000;2022-09-09T06:49:06;100291.34;;;16.09;78.51
54270;BME280;40181;51.560;13.000;2022-09-09T06:51:36;100292.94;;;16.21;78.97
54270;BME280;40181;51.560;13.000;2022-09-09T06:54:07;100301.72;;;16.25;78.40
54270;BME280;40181;51.560;13.000;2022-09-09T06:56:38;100295.47;;;16.30;79.23
54270;BME280;40181;51.560;13.000;2022-09-09T06:59:12;100302.44;;;16.36;78.34
54270;BME280;40181;51.560;13.000;2022-09-09T07:01:42;100291.69;;;16.45;78.41
54270;BME280;40181;51.560;13.000;2022-09-09T07:04:11;100307.81;;;16.31;77.45
54270;BME280;40181;51.560;13.000;2022-09-09T07:06:41;100304.94;;;16.45;77.31
54270;BME280;40181;51.560;13.000;2022-09-09T07:09:11;100302.16;;;16.55;77.03
54270;BME280;40181;51.560;13.000;2022-09-09T07:11:42;100299.56;;;16.53;76.78
54270;BME280;40181;51.560;13.000;2022-09-09T07:14:14;100302.22;;;16.53;77.09
54270;BME280;40181;51.560;13.000;2022-09-09T07:16:44;100304.94;;;16.47;76.61
54270;BME280;40181;51.560;13.000;2022-09-09T07:19:13;100302.91;;;16.63;77.03
54270;BME280;40181;51.560;13.000;2022-09-09T07:21:42;100292.06;;;16.80;77.17
54270;BME280;40181;51.560;13.000;2022-09-09T07:24:11;100288.66;;;16.72;76.77
54270;BME280;40181;51.560;13.000;2022-09-09T07:26:40;100295.63;;;16.76;76.06
54270;BME280;40181;51.560;13.000;2022-09-09T07:29:10;100296.34;;;16.87;75.14
54270;BME280;40181;51.560;13.000;2022-09-09T07:31:41;100297.97;;;16.96;76.22
54270;BME280;40181;51.560;13.000;2022-09-09T07:34:10;100295.25;;;17.01;75.98
54270;BME280;40181;51.560;13.000;2022-09-09T07:36:39;100311.16;;;16.99;74.86
54270;BME280;40181;51.560;13.000;2022-09-09T07:39:09;100297.69;;;17.13;76.56
54270;BME280;40181;51.560;13.000;2022-09-09T07:41:39;100302.97;;;17.15;76.31
54270;BME280;40181;51.560;13.000;2022-09-09T07:44:10;100303.72;;;17.22;75.49
54270;BME280;40181;51.560;13.000;2022-09-09T07:46:43;100296.69;;;17.21;74.80
54270;BME280;40181;51.560;13.000;2022-09-09T07:49:12;100293.84;;;17.32;75.39
54270;BME280;40181;51.560;13.000;2022-09-09T07:51:43;100299.25;;;17.25;74.25
54270;BME280;40181;51.560;13.000;2022-09-09T07:54:15;100290.91;;;17.46;74.31
54270;BME280;40181;51.560;13.000;2022-09-09T07:56:48;100298.72;;;17.53;73.32
54270;BME280;40181;51.560;13.000;2022-09-09T07:59:17;100290.56;;;17.63;73.32
54270;BME280;40181;51.560;13.000;2022-09-09T08:01:50;100304.84;;;17.57;72.83
54270;BME280;40181;51.560;13.000;2022-09-09T08:04:20;100306.47;;;17.66;73.03
54270;BME280;40181;51.560;13.000;2022-09-09T08:06:51;100303.91;;;17.61;71.90
54270;BME280;40181;51.560;13.000;2022-09-09T08:09:21;100304.56;;;17.73;72.51
54270;BME280;40181;51.560;13.000;2022-09-09T08:11:52;100304.66;;;17.66;71.50
54270;BME280;40181;51.560;13.000;2022-09-09T08:14:21;100308.13;;;17.72;71.18
54270;BME280;40181;51.560;13.000;2022-09-09T08:16:53;100300.06;;;17.75;71.20
54270;BME280;40181;51.560;13.000;2022-09-09T08:19:22;100311.34;;;17.86;70.84
54270;BME280;40181;51.560;13.000;2022-09-09T08:21:54;100296.38;;;17.82;70.88
54270;BME280;40181;51.560;13.000;2022-09-09T08:24:23;100301.53;;;17.90;69.82
54270;BME280;40181;51.560;13.000;2022-09-09T08:26:52;100303.16;;;17.97;69.85
54270;BME280;40181;51.560;13.000;2022-09-09T08:29:22;100310.13;;;18.04;70.02
54270;BME280;40181;51.560;13.000;2022-09-09T08:31:54;100309.31;;;17.99;69.85
54270;BME280;40181;51.560;13.000;2022-09-09T08:34:24;100310.84;;;18.11;68.86
54270;BME280;40181;51.560;13.000;2022-09-09T08:36:55;100307.13;;;18.20;68.63
54270;BME280;40181;51.560;13.000;2022-09-09T08:39:24;100319.34;;;18.29;69.57
54270;BME280;40181;51.560;13.000;2022-09-09T08:41:59;100305.06;;;18.33;69.63
54270;BME280;40181;51.560;13.000;2022-09-09T08:44:41;100318.28;;;18.36;68.32
54270;BME280;40181;51.560;13.000;2022-09-09T08:47:21;100320.66;;;18.48;69.81
54270;BME280;40181;51.560;13.000;2022-09-09T08:50:00;100306.72;;;18.38;68.21
54270;BME280;40181;51.560;13.000;2022-09-09T08:52:36;100328.69;;;18.47;68.06
54270;BME280;40181;51.560;13.000;2022-09-09T08:55:12;100328.41;;;18.58;68.29
54270;BME280;40181;51.560;13.000;2022-09-09T08:57:52;100330.13;;;18.60;67.70
54270;BME280;40181;51.560;13.000;2022-09-09T09:00:23;100323.47;;;18.80;68.31
54270;BME280;40181;51.560;13.000;2022-09-09T09:03:05;100325.25;;;18.79;68.50
54270;BME280;40181;51.560;13.000;2022-09-09T09:05:38;100325.38;;;18.75;67.24
54270;BME280;40181;51.560;13.000;2022-09-09T09:08:17;100332.22;;;18.85;66.91
54270;BME280;40181;51.560;13.000;2022-09-09T09:10:54;100333.63;;;19.00;67.61
54270;BME280;40181;51.560;13.000;2022-09-09T09:13:26;100335.38;;;19.03;67.13
54270;BME280;40181;51.560;13.000;2022-09-09T09:16:02;100325.97;;;19.23;68.35
54270;BME280;40181;51.560;13.000;2022-09-09T09:18:40;100319.19;;;19.45;67.32
54270;BME280;40181;51.560;13.000;2022-09-09T09:21:10;100318.00;;;19.56;66.58
54270;BME280;40181;51.560;13.000;2022-09-09T09:23:45;100328.59;;;19.57;66.28
54270;BME280;40181;51.560;13.000;2022-09-09T09:26:19;100316.16;;;19.58;66.72
54270;BME280;40181;51.560;13.000;2022-09-09T09:28:48;100317.91;;;19.59;66.79
54270;BME280;40181;51.560;13.000;2022-09-09T09:31:19;100318.28;;;19.76;65.92
54270;BME280;40181;51.560;13.000;2022-09-09T09:33:54;100325.91;;;19.90;65.78
54270;BME280;40181;51.560;13.000;2022-09-09T09:36:24;100320.13;;;19.74;65.17
54270;BME280;40181;51.560;13.000;2022-09-09T09:39:02;100319.59;;;19.93;65.36
54270;BME280;40181;51.560;13.000;2022-09-09T09:41:32;100321.75;;;19.80;65.13
54270;BME280;40181;51.560;13.000;2022-09-09T09:44:03;100318.03;;;19.86;66.13
54270;BME280;40181;51.560;13.000;2022-09-09T09:46:33;100306.38;;;19.90;67.00
54270;BME280;40181;51.560;13.000;2022-09-09T09:49:05;100314.31;;;19.91;66.42
54270;BME280;40181;51.560;13.000;2022-09-09T09:51:38;100306.06;;;20.01;65.86
54270;BME280;40181;51.560;13.000;2022-09-09T09:54:15;100310.31;;;20.08;65.97
54270;BME280;40181;51.560;13.000;2022-09-09T09:56:48;100312.19;;;20.04;65.46
54270;BME280;40181;51.560;13.000;2022-09-09T09:59:21;100315.34;;;20.17;65.29
54270;BME280;40181;51.560;13.000;2022-09-09T10:01:51;100310.69;;;20.24;64.40
54270;BME280;40181;51.560;13.000;2022-09-09T10:04:23;100308.81;;;20.28;64.32
54270;BME280;40181;51.560;13.000;2022-09-09T10:06:52;100309.22;;;20.44;64.68
54270;BME280;40181;51.560;13.000;2022-09-09T10:09:21;100313.50;;;20.50;63.17
54270;BME280;40181;51.560;13.000;2022-09-09T10:11:54;100315.78;;;20.60;63.40
54270;BME280;40181;51.560;13.000;2022-09-09T10:14:28;100312.59;;;20.78;62.85
54270;BME280;40181;51.560;13.000;2022-09-09T10:17:04;100299.31;;;20.74;62.37
54270;BME280;40181;51.560;13.000;2022-09-09T10:19:44;100306.09;;;20.86;62.76
54270;BME280;40181;51.560;13.000;2022-09-09T10:22:25;100316.03;;;20.81;62.81
54270;BME280;40181;51.560;13.000;2022-09-09T10:25:13;100305.69;;;20.99;61.15
54270;BME280;40181;51.560;13.000;2022-09-09T10:28:07;100312.13;;;21.19;61.17
54270;BME280;40181;51.560;13.000;2022-09-09T10:31:10;100309.38;;;21.20;60.56
54270;BME280;40181;51.560;13.000;2022-09-09T10:33:45;100300.81;;;21.12;61.46
54270;BME280;40181;51.560;13.000;2022-09-09T10:36:21;100302.16;;;21.49;59.20
54270;BME280;40181;51.560;13.000;2022-09-09T10:38:53;100297.44;;;21.56;57.20
54270;BME280;40181;51.560;13.000;2022-09-09T10:41:32;100302.97;;;21.51;57.02
54270;BME280;40181;51.560;13.000;2022-09-09T10:47:05;100298.84;;;21.66;58.94
54270;BME280;40181;51.560;13.000;2022-09-09T10:49:50;100306.00;;;21.91;59.26
54270;BME280;40181;51.560;13.000;2022-09-09T10:52:37;100297.34;;;21.85;57.19
54270;BME280;40181;51.560;13.000;2022-09-09T10:55:13;100289.59;;;21.77;56.74
54270;BME280;40181;51.560;13.000;2022-09-09T10:57:45;100301.09;;;22.03;56.97
54270;BME280;40181;51.560;13.000;2022-09-09T11:00:15;100298.00;;;22.14;56.20
54270;BME280;40181;51.560;13.000;2022-09-09T11:02:47;100295.69;;;22.04;57.59
54270;BME280;40181;51.560;13.000;2022-09-09T11:05:20;100301.50;;;22.38;58.11
54270;BME280;40181;51.560;13.000;2022-09-09T11:07:56;100293.47;;;22.62;56.93
54270;BME280;40181;51.560;13.000;2022-09-09T11:10:28;100289.84;;;22.63;54.38
54270;BME280;40181;51.560;13.000;2022-09-09T11:13:03;100293.16;;;22.46;54.79
54270;BME280;40181;51.560;13.000;2022-09-09T11:15:39;100308.31;;;22.47;54.83
54270;BME280;40181;51.560;13.000;2022-09-09T11:18:11;100302.59;;;22.10;55.24
54270;BME280;40181;51.560;13.000;2022-09-09T11:20:43;100302.13;;;22.22;56.79
54270;BME280;40181;51.560;13.000;2022-09-09T11:23:16;100299.34;;;22.48;56.16
54270;BME280;40181;51.560;13.000;2022-09-09T11:25:48;100296.72;;;22.46;55.07
54270;BME280;40181;51.560;13.000;2022-09-09T11:28:28;100293.75;;;22.76;53.64
54270;BME280;40181;51.560;13.000;2022-09-09T11:31:14;100291.75;;;22.37;53.55
54270;BME280;40181;51.560;13.000;2022-09-09T11:33:54;100292.16;;;22.50;54.24
54270;BME280;40181;51.560;13.000;2022-09-09T11:36:36;100289.53;;;22.91;53.92
54270;BME280;40181;51.560;13.000;2022-09-09T11:39:33;100282.78;;;22.83;54.25
54270;BME280;40181;51.560;13.000;2022-09-09T11:42:18;100280.25;;;23.21;53.24
54270;BME280;40181;51.560;13.000;2022-09-09T11:44:48;100273.16;;;23.41;53.86
54270;BME280;40181;51.560;13.000;2022-09-09T11:47:22;100274.03;;;23.41;54.16
54270;BME280;40181;51.560;13.000;2022-09-09T11:49:55;100269.97;;;23.32;53.13
54270;BME280;40181;51.560;13.000;2022-09-09T11:52:36;100268.72;;;23.60;54.13
54270;BME280;40181;51.560;13.000;2022-09-09T11:55:24;100261.19;;;23.29;53.92
54270;BME280;40181;51.560;13.000;2022-09-09T11:57:57;100254.75;;;23.33;52.45
54270;BME280;40181;51.560;13.000;2022-09-09T12:00:31;100258.63;;;23.05;53.84
54270;BME280;40181;51.560;13.000;2022-09-09T12:03:03;100262.44;;;22.99;54.03
54270;BME280;40181;51.560;13.000;2022-09-09T12:05:37;100263.88;;;22.65;54.61
54270;BME280;40181;51.560;13.000;2022-09-09T12:08:08;100254.22;;;22.38;55.69
54270;BME280;40181;51.560;13.000;2022-09-09T12:10:52;100258.53;;;22.86;55.71
54270;BME280;40181;51.560;13.000;2022-09-09T12:13:23;100266.09;;;22.31;55.23
54270;BME280;40181;51.560;13.000;2022-09-09T12:15:53;100261.81;;;22.72;53.59
54270;BME280;40181;51.560;13.000;2022-09-09T12:18:23;100250.78;;;23.21;51.35
54270;BME280;40181;51.560;13.000;2022-09-09T12:20:54;100254.78;;;23.11;51.65
54270;BME280;40181;51.560;13.000;2022-09-09T12:23:31;100254.19;;;22.83;52.53
54270;BME280;40181;51.560;13.000;2022-09-09T12:26:10;100252.03;;;22.48;53.17
54270;BME280;40181;51.560;13.000;2022-09-09T12:28:59;100260.00;;;22.72;53.40
54270;BME280;40181;51.560;13.000;2022-09-09T12:31:34;100253.53;;;22.78;52.54
54270;BME280;40181;51.560;13.000;2022-09-09T12:34:13;100248.25;;;23.18;53.63
54270;BME280;40181;51.560;13.000;2022-09-09T12:36:44;100243.13;;;23.53;52.66
54270;BME280;40181;51.560;13.000;2022-09-09T12:39:18;100247.56;;;23.73;51.18
54270;BME280;40181;51.560;13.000;2022-09-09T12:41:53;100247.56;;;23.93;49.13
54270;BME280;40181;51.560;13.000;2022-09-09T12:44:23;100243.41;;;23.26;50.38
54270;BME280;40181;51.560;13.000;2022-09-09T12:46:53;100256.25;;;23.59;52.66
54270;BME280;40181;51.560;13.000;2022-09-09T12:49:24;100246.75;;;23.31;50.63
54270;BME280;40181;51.560;13.000;2022-09-09T12:51:59;100240.34;;;23.15;51.35
54270;BME280;40181;51.560;13.000;2022-09-09T12:54:30;100235.31;;;22.86;51.10
54270;BME280;40181;51.560;13.000;2022-09-09T12:57:02;100231.28;;;22.97;52.00
54270;BME280;40181;51.560;13.000;2022-09-09T12:59:35;100234.03;;;22.95;52.54
54270;BME280;40181;51.560;13.000;2022-09-09T13:02:11;100231.34;;;22.95;51.36
54270;BME280;40181;51.560;13.000;2022-09-09T13:04:46;100222.53;;;22.93;53.38
54270;BME280;40181;51.560;13.000;2022-09-09T13:07:15;100231.69;;;22.87;52.83
54270;BME280;40181;51.560;13.000;2022-09-09T13:09:45;100235.81;;;22.53;53.24
54270;BME280;40181;51.560;13.000;2022-09-09T13:12:18;100235.88;;;22.51;52.97
54270;BME280;40181;51.560;13.000;2022-09-09T13:14:49;100224.41;;;22.48;53.18